Time;durP1;ratioP1;P1;durP2;ratioP2;P2;SDS_P1;SDS_P2;PMS_P1;PMS_P2;Temp;Humidity;BMP_temperature;BMP_pressure;BME280_temperature;BME280_humidity;BME280_pressure;Samples;Min_cycle;Max_cycle;Signal;HPM_P1;HPM_P2
2021/10/06 00:01:08;;;;;;;20.60;7.32;;;;;;;;;;5013054;28;20449;-52
2021/10/06 00:03:34;;;;;;;21.38;10.00;;;;;;;;;;5012657;28;20037;-52
2021/10/06 00:06:01;;;;;;;22.98;9.52;;;;;;;;;;5012860;28;20385;-54
2021/10/06 00:08:27;;;;;;;20.52;7.57;;;;;;;;;;5012893;28;20030;-52
2021/10/06 00:10:53;;;;;;;24.48;11.57;;;;;;;;;;5012704;28;20026;-50
2021/10/06 00:13:19;;;;;;;11.23;5.00;;;;;;;;;;5012689;28;20062;-53
2021/10/06 00:15:46;;;;;;;15.20;5.78;;;;;;;;;;5012714;28;20033;-53
2021/10/06 00:18:12;;;;;;;15.90;4.95;;;;;;;;;;5013098;28;20038;-52
2021/10/06 00:20:39;;;;;;;12.93;5.32;;;;;;;;;;5016205;28;20063;-52
2021/10/06 00:23:05;;;;;;;14.27;5.03;;;;;;;;;;5016108;28;20026;-53
2021/10/06 00:25:33;;;;;;;11.27;4.93;;;;;;;;;;5016091;28;20026;-52
2021/10/06 00:27:59;;;;;;;13.15;4.38;;;;;;;;;;5016076;28;20057;-55
2021/10/06 00:30:28;;;;;;;14.38;5.05;;;;;;;;;;5016257;28;20034;-52
2021/10/06 00:32:54;;;;;;;13.82;5.82;;;;;;;;;;5015934;28;20025;-52
2021/10/06 00:35:20;;;;;;;10.93;4.57;;;;;;;;;;5015903;28;20485;-52
2021/10/06 00:37:46;;;;;;;16.02;4.60;;;;;;;;;;5016030;28;20038;-52
2021/10/06 00:40:13;;;;;;;15.43;4.97;;;;;;;;;;5016111;28;20049;-52
2021/10/06 00:42:40;;;;;;;13.60;4.90;;;;;;;;;;5016170;28;20033;-52
2021/10/06 00:45:06;;;;;;;8.10;4.45;;;;;;;;;;5015820;28;20030;-52
2021/10/06 00:47:33;;;;;;;19.83;4.40;;;;;;;;;;5016084;28;20474;-53
2021/10/06 00:49:59;;;;;;;17.58;5.50;;;;;;;;;;5015914;28;20084;-54
2021/10/06 00:52:25;;;;;;;10.88;4.45;;;;;;;;;;5015760;28;20029;-52
2021/10/06 00:54:51;;;;;;;14.18;4.40;;;;;;;;;;5015688;28;20022;-52
2021/10/06 00:57:17;;;;;;;10.90;4.30;;;;;;;;;;5015553;28;20108;-52
2021/10/06 00:59:43;;;;;;;14.30;4.85;;;;;;;;;;5015642;28;20040;-53
2021/10/06 01:02:10;;;;;;;10.85;4.57;;;;;;;;;;5015603;28;20186;-52
2021/10/06 01:04:36;;;;;;;14.60;4.90;;;;;;;;;;5015409;28;20029;-53
2021/10/06 01:07:02;;;;;;;16.60;4.85;;;;;;;;;;5015470;28;20034;-53
2021/10/06 01:09:29;;;;;;;14.13;4.78;;;;;;;;;;5015394;28;20033;-52
2021/10/06 01:11:56;;;;;;;15.15;4.75;;;;;;;;;;5015362;28;20033;-53
2021/10/06 01:14:23;;;;;;;13.60;4.68;;;;;;;;;;5015383;28;20100;-54
2021/10/06 01:16:50;;;;;;;16.35;4.25;;;;;;;;;;5015249;28;20045;-52
2021/10/06 01:19:18;;;;;;;15.20;4.55;;;;;;;;;;5015211;28;20026;-53
2021/10/06 01:21:46;;;;;;;16.00;5.10;;;;;;;;;;5015074;28;20430;-53
2021/10/06 01:24:12;;;;;;;15.18;4.13;;;;;;;;;;5014998;28;20025;-53
2021/10/06 01:26:38;;;;;;;18.67;4.50;;;;;;;;;;5015160;28;20529;-53
2021/10/06 01:29:04;;;;;;;12.68;4.63;;;;;;;;;;5015127;28;20022;-53
2021/10/06 01:31:30;;;;;;;17.83;4.82;;;;;;;;;;5014073;28;20429;-53
2021/10/06 01:33:57;;;;;;;11.27;4.70;;;;;;;;;;5014942;28;20022;-53
2021/10/06 01:36:23;;;;;;;13.90;4.55;;;;;;;;;;5014821;28;20478;-52
2021/10/06 01:38:49;;;;;;;12.32;4.90;;;;;;;;;;5014909;28;20058;-54
2021/10/06 01:41:15;;;;;;;10.93;5.03;;;;;;;;;;5014666;28;20028;-53
2021/10/06 01:43:41;;;;;;;10.00;4.93;;;;;;;;;;5014591;28;20397;-53
2021/10/06 01:46:07;;;;;;;18.88;5.03;;;;;;;;;;5014963;28;20445;-53
2021/10/06 01:48:33;;;;;;;11.65;4.22;;;;;;;;;;5014762;28;20032;-53
2021/10/06 01:51:00;;;;;;;18.90;4.85;;;;;;;;;;5014690;28;20029;-53
2021/10/06 01:53:35;;;;;;;10.75;4.28;;;;;;;;;;5014332;28;20022;-53
2021/10/06 01:56:01;;;;;;;9.75;4.45;;;;;;;;;;5014420;28;20025;-53
2021/10/06 01:58:27;;;;;;;14.25;4.65;;;;;;;;;;5014462;28;20026;-53
2021/10/06 02:00:53;;;;;;;13.88;4.90;;;;;;;;;;5014359;28;20104;-53
2021/10/06 02:03:19;;;;;;;13.27;5.10;;;;;;;;;;5014225;28;20026;-53
2021/10/06 02:05:45;;;;;;;13.75;4.45;;;;;;;;;;5014565;28;20564;-54
2021/10/06 02:08:15;;;;;;;15.48;4.80;;;;;;;;;;5014525;28;20052;-54
2021/10/06 02:10:44;;;;;;;16.05;4.70;;;;;;;;;;5014501;28;20026;-56
2021/10/06 02:13:11;;;;;;;12.27;4.97;;;;;;;;;;5014262;28;20021;-54
2021/10/06 02:15:37;;;;;;;12.63;5.10;;;;;;;;;;5014395;28;20102;-54
2021/10/06 02:18:05;;;;;;;14.13;5.07;;;;;;;;;;5014172;28;20034;-53
2021/10/06 02:20:31;;;;;;;17.27;5.80;;;;;;;;;;5014507;28;20050;-52
2021/10/06 02:22:58;;;;;;;18.40;6.88;;;;;;;;;;5014293;28;20026;-53
2021/10/06 02:25:24;;;;;;;18.33;5.63;;;;;;;;;;5014149;28;20409;-53
2021/10/06 02:27:50;;;;;;;12.05;4.93;;;;;;;;;;5013906;28;20100;-53
2021/10/06 02:30:16;;;;;;;23.55;6.93;;;;;;;;;;5013858;28;20032;-53
2021/10/06 02:32:42;;;;;;;13.05;5.10;;;;;;;;;;5013877;28;20022;-51
2021/10/06 02:35:14;;;;;;;13.57;5.22;;;;;;;;;;5013499;28;20587;-51
2021/10/06 02:37:40;;;;;;;;;;;;;;;;;;5014328;28;20442;-51
2021/10/06 02:40:07;;;;;;;19.35;5.63;;;;;;;;;;5013926;28;19905;-52
2021/10/06 02:42:33;;;;;;;16.65;5.45;;;;;;;;;;5013673;28;20032;-52
2021/10/06 02:45:02;;;;;;;7.88;5.55;;;;;;;;;;5013997;28;20025;-51
2021/10/06 02:47:30;;;;;;;15.00;5.72;;;;;;;;;;5013852;28;20050;-52
2021/10/06 02:49:56;;;;;;;13.57;5.40;;;;;;;;;;5013625;28;20069;-51
2021/10/06 02:52:22;;;;;;;9.85;4.88;;;;;;;;;;5013962;28;20056;-52
2021/10/06 02:54:48;;;;;;;11.95;5.47;;;;;;;;;;5013576;28;20488;-52
2021/10/06 02:57:14;;;;;;;11.68;5.35;;;;;;;;;;5013647;28;20375;-52
2021/10/06 02:59:40;;;;;;;19.73;5.25;;;;;;;;;;5013340;28;20462;-52
2021/10/06 03:02:07;;;;;;;11.48;5.32;;;;;;;;;;5013426;28;20533;-52
2021/10/06 03:04:33;;;;;;;11.00;6.80;;;;;;;;;;5013418;28;20022;-51
2021/10/06 03:06:59;;;;;;;12.25;5.47;;;;;;;;;;5013694;28;20030;-51
2021/10/06 03:09:25;;;;;;;17.35;4.95;;;;;;;;;;5013421;28;20021;-52
2021/10/06 03:11:51;;;;;;;14.70;5.45;;;;;;;;;;5013297;28;20478;-51
2021/10/06 03:14:17;;;;;;;13.05;5.13;;;;;;;;;;5013469;28;20026;-52
2021/10/06 03:16:43;;;;;;;19.60;7.00;;;;;;;;;;5013294;28;20112;-52
2021/10/06 03:19:12;;;;;;;14.70;5.82;;;;;;;;;;5013529;28;20022;-54
2021/10/06 03:21:38;;;;;;;17.95;6.03;;;;;;;;;;4995226;28;20064;-52
2021/10/06 03:24:04;;;;;;;13.18;4.75;;;;;;;;;;5013338;28;20068;-52
2021/10/06 03:26:30;;;;;;;11.95;5.88;;;;;;;;;;5013619;28;20455;-52
2021/10/06 03:28:58;;;;;;;17.13;5.35;;;;;;;;;;5013274;28;20026;-53
2021/10/06 03:31:26;;;;;;;16.13;5.45;;;;;;;;;;5013092;28;20030;-53
2021/10/06 03:33:57;;;;;;;14.85;5.00;;;;;;;;;;5012983;28;20065;-53
2021/10/06 03:36:23;;;;;;;16.52;5.63;;;;;;;;;;5013125;28;20042;-53
2021/10/06 03:38:52;;;;;;;15.13;5.03;;;;;;;;;;5013153;28;20109;-53
2021/10/06 03:41:18;;;;;;;15.38;5.05;;;;;;;;;;5013177;28;20018;-52
2021/10/06 03:43:44;;;;;;;15.20;5.65;;;;;;;;;;5013774;28;20080;-52
2021/10/06 03:46:10;;;;;;;12.57;5.18;;;;;;;;;;5013006;28;20537;-51
2021/10/06 03:48:37;;;;;;;12.95;5.43;;;;;;;;;;5013336;28;20022;-52
2021/10/06 03:51:03;;;;;;;13.43;5.43;;;;;;;;;;5012967;28;20381;-51
2021/10/06 03:53:29;;;;;;;12.35;4.88;;;;;;;;;;5013942;28;20022;-52
2021/10/06 03:55:55;;;;;;;13.18;5.38;;;;;;;;;;5016705;28;20137;-52
2021/10/06 03:58:21;;;;;;;13.85;5.45;;;;;;;;;;5017018;28;20041;-52
2021/10/06 04:00:47;;;;;;;17.45;5.65;;;;;;;;;;5016709;28;20045;-52
2021/10/06 04:03:14;;;;;;;13.70;4.93;;;;;;;;;;5016635;28;20026;-52
2021/10/06 04:05:41;;;;;;;12.38;5.32;;;;;;;;;;5016539;28;20029;-52
2021/10/06 04:08:07;;;;;;;14.77;5.05;;;;;;;;;;5016422;28;20109;-53
2021/10/06 04:10:33;;;;;;;12.48;5.15;;;;;;;;;;4998343;28;20401;-53
2021/10/06 04:13:00;;;;;;;18.52;5.72;;;;;;;;;;5016292;28;20032;-52
2021/10/06 04:15:26;;;;;;;11.05;5.10;;;;;;;;;;5016393;28;20096;-52
2021/10/06 04:17:52;;;;;;;11.02;5.53;;;;;;;;;;5016369;28;20038;-51
2021/10/06 04:20:18;;;;;;;13.40;4.93;;;;;;;;;;5016287;28;20497;-50
2021/10/06 04:22:45;;;;;;;16.23;4.68;;;;;;;;;;5016371;28;20037;-51
2021/10/06 04:25:15;;;;;;;13.80;5.43;;;;;;;;;;5016104;28;20018;-54
2021/10/06 04:27:41;;;;;;;17.63;5.15;;;;;;;;;;5016063;28;20597;-51
2021/10/06 04:30:08;;;;;;;19.50;5.90;;;;;;;;;;5016104;28;20108;-53
2021/10/06 04:32:34;;;;;;;16.23;5.85;;;;;;;;;;5016004;28;20116;-51
2021/10/06 04:35:00;;;;;;;12.25;5.50;;;;;;;;;;5015835;28;20052;-52
2021/10/06 04:37:27;;;;;;;11.25;5.45;;;;;;;;;;5016177;28;20080;-51
2021/10/06 04:39:53;;;;;;;14.13;5.93;;;;;;;;;;5015874;28;20080;-51
2021/10/06 04:42:19;;;;;;;20.83;5.68;;;;;;;;;;5015956;28;20101;-52
2021/10/06 04:44:45;;;;;;;16.02;5.95;;;;;;;;;;5015837;28;20026;-52
2021/10/06 04:47:11;;;;;;;14.77;5.50;;;;;;;;;;5015949;28;20026;-52
2021/10/06 04:49:37;;;;;;;18.25;5.85;;;;;;;;;;5015576;28;20121;-52
2021/10/06 04:52:04;;;;;;;18.17;6.38;;;;;;;;;;5015733;28;20029;-52
2021/10/06 04:54:30;;;;;;;19.17;6.60;;;;;;;;;;5015451;28;20026;-52
2021/10/06 04:56:56;;;;;;;15.38;6.22;;;;;;;;;;5015460;28;20486;-52
2021/10/06 04:59:22;;;;;;;14.07;6.25;;;;;;;;;;5015028;28;20079;-51
2021/10/06 05:01:48;;;;;;;20.48;8.55;;;;;;;;;;5015324;28;20026;-51
2021/10/06 05:04:16;;;;;;;15.02;6.82;;;;;;;;;;5014863;28;20397;-51
2021/10/06 05:06:42;;;;;;;17.80;8.10;;;;;;;;;;5014741;28;20029;-51
2021/10/06 05:09:08;;;;;;;43.10;18.63;;;;;;;;;;5015131;28;20014;-47
2021/10/06 05:11:34;;;;;;;23.60;11.73;;;;;;;;;;5015196;28;20101;-47
2021/10/06 05:14:05;;;;;;;12.13;6.75;;;;;;;;;;5015248;28;20022;-50
2021/10/06 05:16:31;;;;;;;23.00;6.88;;;;;;;;;;5015506;28;20101;-51
2021/10/06 05:18:57;;;;;;;15.93;6.80;;;;;;;;;;5014904;28;20041;-50
2021/10/06 05:21:24;;;;;;;12.15;6.75;;;;;;;;;;5014981;28;20454;-50
2021/10/06 05:23:50;;;;;;;10.80;6.30;;;;;;;;;;5014903;28;20029;-51
2021/10/06 05:26:16;;;;;;;14.50;6.68;;;;;;;;;;5014766;28;20096;-50
2021/10/06 05:28:42;;;;;;;16.30;7.75;;;;;;;;;;5014850;28;20060;-51
2021/10/06 05:31:08;;;;;;;17.40;7.72;;;;;;;;;;5014909;28;20037;-51
2021/10/06 05:33:36;;;;;;;19.33;9.88;;;;;;;;;;5014815;28;20099;-51
2021/10/06 05:36:05;;;;;;;17.08;8.18;;;;;;;;;;5014759;28;20064;-50
2021/10/06 05:38:31;;;;;;;23.88;8.85;;;;;;;;;;5014576;28;20038;-52
2021/10/06 05:40:57;;;;;;;14.35;7.70;;;;;;;;;;5014674;28;20377;-51
2021/10/06 05:43:30;;;;;;;12.30;6.68;;;;;;;;;;5014794;28;20026;-50
2021/10/06 05:45:56;;;;;;;12.15;7.05;;;;;;;;;;5014834;28;20022;-50
2021/10/06 05:48:22;;;;;;;16.15;6.30;;;;;;;;;;5014687;28;20053;-53
2021/10/06 05:50:48;;;;;;;10.68;6.25;;;;;;;;;;5014662;28;20057;-50
2021/10/06 05:53:15;;;;;;;18.48;6.07;;;;;;;;;;5014536;28;20026;-50
2021/10/06 05:55:41;;;;;;;13.70;6.32;;;;;;;;;;5014259;28;20026;-51
2021/10/06 05:58:07;;;;;;;19.52;6.07;;;;;;;;;;5014245;28;20379;-51
2021/10/06 06:00:33;;;;;;;17.88;6.38;;;;;;;;;;4996466;28;20033;-50
2021/10/06 06:02:59;;;;;;;14.85;6.03;;;;;;;;;;4996332;28;20385;-51
2021/10/06 06:05:25;;;;;;;13.68;5.82;;;;;;;;;;5014465;28;20029;-51
2021/10/06 06:07:53;;;;;;;13.65;5.70;;;;;;;;;;5014168;28;20026;-50
2021/10/06 06:10:19;;;;;;;13.40;5.85;;;;;;;;;;5014292;28;20029;-54
2021/10/06 06:12:48;;;;;;;13.85;6.63;;;;;;;;;;5014242;28;20379;-50
2021/10/06 06:15:16;;;;;;;13.18;5.90;;;;;;;;;;5014269;28;20057;-51
2021/10/06 06:17:43;;;;;;;12.75;6.03;;;;;;;;;;5013821;28;20042;-51
2021/10/06 06:20:10;;;;;;;14.93;5.80;;;;;;;;;;5014179;28;20072;-50
2021/10/06 06:22:37;;;;;;;13.82;5.97;;;;;;;;;;4996655;28;20022;-51
2021/10/06 06:25:04;;;;;;;12.38;5.65;;;;;;;;;;5013812;28;20467;-54
2021/10/06 06:27:30;;;;;;;11.57;6.07;;;;;;;;;;5013937;28;20034;-51
2021/10/06 06:29:56;;;;;;;15.95;6.03;;;;;;;;;;5013868;28;20026;-52
2021/10/06 06:32:22;;;;;;;33.92;14.30;;;;;;;;;;5013781;28;20463;-50
2021/10/06 06:34:48;;;;;;;29.92;17.23;;;;;;;;;;5013589;28;20046;-51
2021/10/06 06:37:14;;;;;;;25.77;13.60;;;;;;;;;;5013757;28;20034;-50
2021/10/06 06:39:40;;;;;;;16.10;9.25;;;;;;;;;;5013722;28;20026;-52
2021/10/06 06:42:07;;;;;;;12.57;8.02;;;;;;;;;;4996055;28;20117;-52
2021/10/06 06:44:33;;;;;;;17.60;6.85;;;;;;;;;;5013751;28;20037;-51
2021/10/06 06:46:59;;;;;;;11.82;6.72;;;;;;;;;;5013726;28;20026;-54
2021/10/06 06:49:25;;;;;;;17.00;7.35;;;;;;;;;;5013441;28;20021;-51
2021/10/06 06:51:55;;;;;;;13.38;7.82;;;;;;;;;;5013537;28;20473;-52
2021/10/06 06:54:21;;;;;;;15.68;8.43;;;;;;;;;;5013403;28;20066;-53
2021/10/06 06:56:47;;;;;;;17.48;8.10;;;;;;;;;;5013690;28;20026;-50
2021/10/06 06:59:13;;;;;;;20.25;8.38;;;;;;;;;;5013330;28;20509;-49
2021/10/06 07:01:39;;;;;;;16.60;9.77;;;;;;;;;;5013255;28;20062;-52
2021/10/06 07:04:05;;;;;;;16.98;9.40;;;;;;;;;;4995534;28;20490;-50
2021/10/06 07:06:35;;;;;;;15.77;9.45;;;;;;;;;;5013728;28;20030;-52
2021/10/06 07:09:02;;;;;;;19.80;10.43;;;;;;;;;;5013259;28;20021;-51
2021/10/06 07:11:28;;;;;;;29.13;11.85;;;;;;;;;;5013235;28;20034;-52
2021/10/06 07:13:54;;;;;;;17.88;9.80;;;;;;;;;;5013301;28;20037;-44
2021/10/06 07:16:20;;;;;;;16.67;8.80;;;;;;;;;;5013310;28;20022;-45
2021/10/06 07:18:46;;;;;;;21.67;9.88;;;;;;;;;;5013275;28;20050;-45
2021/10/06 07:21:12;;;;;;;16.30;9.57;;;;;;;;;;5013223;28;20022;-45
2021/10/06 07:23:39;;;;;;;23.02;10.98;;;;;;;;;;5013281;28;20109;-48
2021/10/06 07:26:05;;;;;;;18.10;9.60;;;;;;;;;;5013127;28;20030;-46
2021/10/06 07:28:33;;;;;;;20.55;10.25;;;;;;;;;;5014442;28;20037;-44
2021/10/06 07:30:59;;;;;;;23.85;10.48;;;;;;;;;;5016995;28;20021;-50
2021/10/06 07:33:26;;;;;;;16.88;9.57;;;;;;;;;;5017074;28;20030;-43
2021/10/06 07:35:52;;;;;;;14.68;9.75;;;;;;;;;;5016959;28;20130;-47
2021/10/06 07:38:18;;;;;;;19.13;11.93;;;;;;;;;;5017084;28;20041;-48
2021/10/06 07:40:44;;;;;;;21.63;11.75;;;;;;;;;;5016864;28;20030;-51
2021/10/06 07:43:10;;;;;;;24.70;13.20;;;;;;;;;;5016705;28;20056;-44
2021/10/06 07:45:36;;;;;;;30.60;13.23;;;;;;;;;;5016757;28;20025;-49
2021/10/06 07:48:02;;;;;;;14.02;10.00;;;;;;;;;;5016778;28;20045;-45
2021/10/06 07:50:28;;;;;;;33.25;13.55;;;;;;;;;;5016855;28;20026;-44
2021/10/06 07:52:57;;;;;;;17.92;9.27;;;;;;;;;;5016672;28;20029;-43
2021/10/06 07:55:24;;;;;;;21.20;12.38;;;;;;;;;;5016634;28;20025;-44
2021/10/06 07:57:53;;;;;;;16.13;10.48;;;;;;;;;;5016376;28;20034;-43
2021/10/06 08:00:19;;;;;;;26.98;13.13;;;;;;;;;;5016668;28;20030;-49
2021/10/06 08:02:46;;;;;;;28.80;13.82;;;;;;;;;;5016753;28;20032;-49
2021/10/06 08:05:12;;;;;;;31.60;17.50;;;;;;;;;;5016675;28;20029;-44
2021/10/06 08:07:38;;;;;;;45.15;25.58;;;;;;;;;;5016814;28;20033;-45
2021/10/06 08:10:05;;;;;;;37.00;17.15;;;;;;;;;;5016741;28;20026;-49
2021/10/06 08:12:33;;;;;;;14.10;9.93;;;;;;;;;;5016447;28;20018;-48
2021/10/06 08:15:02;;;;;;;22.33;10.18;;;;;;;;;;5016481;28;20029;-52
2021/10/06 08:17:28;;;;;;;14.80;8.18;;;;;;;;;;5016306;28;20022;-46
2021/10/06 08:19:54;;;;;;;28.08;15.95;;;;;;;;;;5016498;28;20033;-47
2021/10/06 08:22:25;;;;;;;114.45;58.42;;;;;;;;;;5016328;28;20022;-46
2021/10/06 08:24:51;;;;;;;17.73;9.95;;;;;;;;;;5016171;28;20487;-46
2021/10/06 08:27:19;;;;;;;33.88;15.48;;;;;;;;;;5016150;28;20105;-54
2021/10/06 08:29:45;;;;;;;22.80;11.52;;;;;;;;;;5016616;28;20033;-46
2021/10/06 08:32:12;;;;;;;23.65;11.15;;;;;;;;;;5016419;28;20022;-50
2021/10/06 08:34:38;;;;;;;41.90;19.75;;;;;;;;;;5015906;28;20054;-51
2021/10/06 08:37:04;;;;;;;17.73;9.65;;;;;;;;;;5016198;28;20022;-52
2021/10/06 08:39:30;;;;;;;23.30;11.32;;;;;;;;;;5015698;28;20037;-52
2021/10/06 08:41:56;;;;;;;22.67;12.45;;;;;;;;;;5016066;28;20033;-44
2021/10/06 08:44:23;;;;;;;13.70;8.90;;;;;;;;;;5000603;28;20054;-45
2021/10/06 08:46:49;;;;;;;70.43;36.15;;;;;;;;;;4990436;28;20026;-45
2021/10/06 08:49:15;;;;;;;33.63;18.73;;;;;;;;;;4990131;28;20058;-45
2021/10/06 08:51:41;;;;;;;15.25;9.02;;;;;;;;;;4990168;28;20034;-46
2021/10/06 08:54:10;;;;;;;13.23;8.13;;;;;;;;;;4996161;28;20034;-47
2021/10/06 08:56:36;;;;;;;19.02;8.43;;;;;;;;;;4996213;28;20031;-50
2021/10/06 08:59:03;;;;;;;16.15;9.20;;;;;;;;;;4996069;28;20034;-47
2021/10/06 09:01:30;;;;;;;18.85;8.75;;;;;;;;;;4996200;28;20427;-46
2021/10/06 09:03:57;;;;;;;14.43;8.43;;;;;;;;;;4996276;28;20033;-47
2021/10/06 09:06:31;;;;;;;13.35;8.40;;;;;;;;;;4995968;28;20026;-47
2021/10/06 09:08:57;;;;;;;14.75;8.13;;;;;;;;;;4995943;28;20041;-48
2021/10/06 09:11:31;;;;;;;12.52;7.95;;;;;;;;;;4995825;28;20022;-48
2021/10/06 09:13:57;;;;;;;21.02;7.53;;;;;;;;;;4995864;28;20030;-51
2021/10/06 09:16:25;;;;;;;16.33;8.50;;;;;;;;;;4996064;28;20045;-51
2021/10/06 09:18:51;;;;;;;16.60;8.70;;;;;;;;;;4995901;28;20549;-46
2021/10/06 09:21:17;;;;;;;15.45;7.80;;;;;;;;;;4995813;28;20022;-49
2021/10/06 09:23:43;;;;;;;15.15;8.07;;;;;;;;;;4995597;28;20022;-47
2021/10/06 09:26:13;;;;;;;12.52;8.13;;;;;;;;;;4995425;28;20026;-46
2021/10/06 09:28:43;;;;;;;14.55;8.43;;;;;;;;;;4995708;28;20018;-46
2021/10/06 09:31:11;;;;;;;12.52;8.07;;;;;;;;;;4995603;28;20367;-47
2021/10/06 09:33:37;;;;;;;19.00;7.72;;;;;;;;;;4995547;28;20402;-46
2021/10/06 09:36:07;;;;;;;17.05;7.55;;;;;;;;;;4995303;28;20586;-46
2021/10/06 09:38:46;;;;;;;14.25;8.05;;;;;;;;;;4983839;28;20034;-47
2021/10/06 09:41:45;;;;;;;15.20;8.20;;;;;;;;;;4984763;28;20030;-47
2021/10/06 09:44:21;;;;;;;16.90;7.38;;;;;;;;;;4904458;29;20568;-44
2021/10/06 09:46:48;;;;;;;13.05;8.38;;;;;;;;;;4904316;29;20477;-46
2021/10/06 09:49:19;;;;;;;17.65;8.77;;;;;;;;;;4906254;29;20028;-46
2021/10/06 09:51:45;;;;;;;15.52;7.72;;;;;;;;;;4904379;29;20430;-46
2021/10/06 09:54:11;;;;;;;16.10;7.85;;;;;;;;;;4899095;29;20127;-46
2021/10/06 09:56:42;;;;;;;17.42;8.65;;;;;;;;;;4897188;29;20508;-54
2021/10/06 09:59:08;;;;;;;12.82;7.95;;;;;;;;;;4897424;29;20047;-47
2021/10/06 10:01:37;;;;;;;13.23;7.85;;;;;;;;;;4897224;29;20496;-45
2021/10/06 10:04:05;;;;;;;14.98;8.82;;;;;;;;;;4902539;29;20446;-45
2021/10/06 10:06:31;;;;;;;16.38;8.90;;;;;;;;;;4905060;29;20043;-46
2021/10/06 10:08:57;;;;;;;17.63;8.05;;;;;;;;;;4906463;29;20027;-49
2021/10/06 10:11:23;;;;;;;12.65;7.13;;;;;;;;;;4903815;29;20032;-46
2021/10/06 10:13:49;;;;;;;16.42;8.13;;;;;;;;;;4906328;29;20080;-48
2021/10/06 10:16:16;;;;;;;17.42;8.27;;;;;;;;;;4905885;29;20028;-46
2021/10/06 10:18:42;;;;;;;20.05;8.63;;;;;;;;;;4912262;28;20040;-50
2021/10/06 10:21:11;;;;;;;20.23;9.50;;;;;;;;;;4983301;28;20034;-50
2021/10/06 10:23:37;;;;;;;15.02;11.80;;;;;;;;;;4983618;28;20023;-47
2021/10/06 10:26:04;;;;;;;14.77;8.40;;;;;;;;;;4984803;28;20070;-50
2021/10/06 10:28:40;;;;;;;18.65;11.20;;;;;;;;;;4983312;28;20026;-46
2021/10/06 10:31:09;;;;;;;19.27;9.85;;;;;;;;;;4982783;28;20090;-43
2021/10/06 10:33:44;;;;;;;23.65;13.60;;;;;;;;;;4983771;28;20022;-48
2021/10/06 10:36:29;;;;;;;23.00;10.55;;;;;;;;;;4983344;28;20027;-48
2021/10/06 10:38:55;;;;;;;18.08;10.48;;;;;;;;;;4983729;28;20046;-47
2021/10/06 10:41:40;;;;;;;27.25;16.92;;;;;;;;;;4982744;28;20026;-47
2021/10/06 10:44:07;;;;;;;26.58;16.25;;;;;;;;;;4984544;28;20029;-46
2021/10/06 10:46:52;;;;;;;42.03;21.02;;;;;;;;;;4983209;28;20097;-46
2021/10/06 10:49:18;;;;;;;50.65;23.55;;;;;;;;;;4984193;28;20031;-45
2021/10/06 10:51:49;;;;;;;52.15;23.35;;;;;;;;;;4982464;28;20045;-46
2021/10/06 10:54:35;;;;;;;56.78;25.77;;;;;;;;;;4983946;28;20026;-46
2021/10/06 10:57:20;;;;;;;60.42;29.40;;;;;;;;;;4983505;28;20030;-45
2021/10/06 10:59:50;;;;;;;81.80;37.72;;;;;;;;;;4984084;28;20034;-46
2021/10/06 11:02:16;;;;;;;48.58;23.13;;;;;;;;;;4982655;28;20077;-45
2021/10/06 11:04:45;;;;;;;28.90;12.35;;;;;;;;;;4983603;28;20073;-44
2021/10/06 11:07:13;;;;;;;31.77;17.85;;;;;;;;;;4984554;28;20042;-45
2021/10/06 11:09:51;;;;;;;18.33;11.48;;;;;;;;;;4983101;28;20089;-46
2021/10/06 11:12:20;;;;;;;26.95;14.05;;;;;;;;;;4982826;28;20106;-45
2021/10/06 11:14:52;;;;;;;43.78;19.60;;;;;;;;;;4983222;28;20077;-45
2021/10/06 11:17:19;;;;;;;38.90;20.58;;;;;;;;;;4982904;28;20072;-46
2021/10/06 11:19:47;;;;;;;50.80;25.40;;;;;;;;;;4983306;28;20038;-46
2021/10/06 11:22:24;;;;;;;49.47;23.48;;;;;;;;;;4983967;28;20018;-45
2021/10/06 11:24:51;;;;;;;26.58;13.68;;;;;;;;;;4984027;28;20019;-45
2021/10/06 11:27:18;;;;;;;37.97;20.00;;;;;;;;;;4982423;28;20069;-46
2021/10/06 11:29:45;;;;;;;20.10;12.63;;;;;;;;;;4975801;28;20034;-46
2021/10/06 11:32:11;;;;;;;30.05;15.35;;;;;;;;;;4974281;28;20030;-45
2021/10/06 11:34:46;;;;;;;27.77;14.30;;;;;;;;;;4974201;28;20047;-45
2021/10/06 11:37:16;;;;;;;28.75;13.68;;;;;;;;;;4974365;28;20035;-45
2021/10/06 11:39:43;;;;;;;22.13;13.32;;;;;;;;;;4974183;28;20035;-46
2021/10/06 11:42:13;;;;;;;59.20;34.63;;;;;;;;;;4974022;28;20078;-45
2021/10/06 11:44:40;;;;;;;50.80;26.38;;;;;;;;;;4974305;28;20029;-46
2021/10/06 11:47:07;;;;;;;29.67;17.55;;;;;;;;;;4974150;28;20023;-45
2021/10/06 11:49:40;;;;;;;23.58;12.30;;;;;;;;;;4974096;28;20031;-45
2021/10/06 11:52:07;;;;;;;17.05;9.60;;;;;;;;;;4973835;28;20035;-46
2021/10/06 11:54:33;;;;;;;29.27;15.15;;;;;;;;;;4974069;28;20099;-45
2021/10/06 11:57:01;;;;;;;22.50;11.57;;;;;;;;;;4973942;28;20463;-47
2021/10/06 11:59:29;;;;;;;35.55;19.17;;;;;;;;;;4973964;28;20090;-44
2021/10/06 12:01:59;;;;;;;37.30;21.13;;;;;;;;;;4973475;28;20031;-47
2021/10/06 12:04:30;;;;;;;21.38;10.30;;;;;;;;;;4973395;28;20034;-47
2021/10/06 12:07:01;;;;;;;13.63;8.05;;;;;;;;;;4973597;28;20048;-45
2021/10/06 12:09:39;;;;;;;11.02;7.70;;;;;;;;;;4973502;28;20054;-45
2021/10/06 12:12:12;;;;;;;17.50;10.55;;;;;;;;;;4973438;28;20368;-44
2021/10/06 12:14:48;;;;;;;14.20;7.03;;;;;;;;;;4974730;28;20027;-50
2021/10/06 12:17:20;;;;;;;23.88;11.85;;;;;;;;;;4975318;28;20050;-45
2021/10/06 12:19:58;;;;;;;16.27;8.70;;;;;;;;;;4976477;28;20034;-46
2021/10/06 12:22:29;;;;;;;14.20;7.88;;;;;;;;;;4976547;28;20037;-46
2021/10/06 12:25:00;;;;;;;13.95;8.15;;;;;;;;;;4976593;28;20371;-46
2021/10/06 12:27:31;;;;;;;18.08;9.50;;;;;;;;;;4976852;28;20109;-46
2021/10/06 12:30:12;;;;;;;14.93;8.32;;;;;;;;;;4977124;28;20110;-47
2021/10/06 12:32:41;;;;;;;17.20;9.23;;;;;;;;;;4977386;28;20042;-46
2021/10/06 12:35:09;;;;;;;20.05;9.20;;;;;;;;;;4976893;28;20444;-47
2021/10/06 12:37:35;;;;;;;13.88;8.98;;;;;;;;;;4976937;28;20030;-46
2021/10/06 12:40:01;;;;;;;33.67;27.10;;;;;;;;;;4976955;28;20109;-47
2021/10/06 12:42:29;;;;;;;37.17;27.23;;;;;;;;;;4976272;28;20023;-46
2021/10/06 12:44:56;;;;;;;43.53;31.85;;;;;;;;;;4976128;28;20471;-46
2021/10/06 12:47:22;;;;;;;38.83;24.15;;;;;;;;;;4976209;28;20023;-46
2021/10/06 12:49:53;;;;;;;88.97;54.47;;;;;;;;;;4976086;28;20030;-46
2021/10/06 12:52:22;;;;;;;48.33;25.77;;;;;;;;;;4973860;28;20030;-46
2021/10/06 12:54:48;;;;;;;46.25;27.33;;;;;;;;;;4976267;28;20022;-48
2021/10/06 12:57:14;;;;;;;171.07;91.15;;;;;;;;;;4976226;28;20038;-46
2021/10/06 12:59:43;;;;;;;46.10;22.10;;;;;;;;;;4975982;28;20486;-46
2021/10/06 13:02:10;;;;;;;33.08;15.68;;;;;;;;;;4973803;28;20552;-46
2021/10/06 13:04:37;;;;;;;81.10;33.97;;;;;;;;;;4975480;28;20546;-47
2021/10/06 13:07:05;;;;;;;62.92;26.52;;;;;;;;;;4976522;28;20151;-46
2021/10/06 13:09:31;;;;;;;66.90;27.65;;;;;;;;;;4976571;28;20027;-45
2021/10/06 13:11:58;;;;;;;38.42;16.20;;;;;;;;;;4976454;28;20019;-45
2021/10/06 13:14:24;;;;;;;36.58;13.80;;;;;;;;;;4976468;28;20053;-45
2021/10/06 13:16:51;;;;;;;89.53;29.30;;;;;;;;;;4975610;28;20026;-48
2021/10/06 13:19:18;;;;;;;55.30;19.05;;;;;;;;;;4972403;28;20463;-47
2021/10/06 13:21:46;;;;;;;58.13;21.63;;;;;;;;;;4975788;28;20019;-47
2021/10/06 13:24:13;;;;;;;41.15;16.90;;;;;;;;;;4975635;28;20027;-47
2021/10/06 13:26:39;;;;;;;45.10;20.55;;;;;;;;;;4974503;28;20459;-48
2021/10/06 13:29:05;;;;;;;82.75;35.28;;;;;;;;;;4975522;28;20027;-46
2021/10/06 13:31:32;;;;;;;68.45;26.42;;;;;;;;;;4975594;28;20041;-48
2021/10/06 13:33:59;;;;;;;51.83;21.10;;;;;;;;;;4975128;28;20027;-46
2021/10/06 13:36:25;;;;;;;35.92;13.23;;;;;;;;;;4958191;28;20177;-47
2021/10/06 13:38:51;;;;;;;27.30;11.30;;;;;;;;;;4975330;28;20074;-47
2021/10/06 13:41:22;;;;;;;54.38;22.90;;;;;;;;;;4975488;28;20030;-47
2021/10/06 13:43:48;;;;;;;46.63;22.77;;;;;;;;;;4975280;28;20505;-48
2021/10/06 13:46:18;;;;;;;17.02;9.95;;;;;;;;;;4975151;28;20257;-46
2021/10/06 13:48:44;;;;;;;17.55;9.48;;;;;;;;;;4974928;28;20387;-46
2021/10/06 13:51:10;;;;;;;24.52;14.05;;;;;;;;;;4975773;28;20111;-48
2021/10/06 13:53:37;;;;;;;61.35;35.55;;;;;;;;;;4975867;28;20055;-45
2021/10/06 13:56:03;;;;;;;92.60;56.70;;;;;;;;;;4975488;28;20490;-46
2021/10/06 13:58:29;;;;;;;40.40;20.30;;;;;;;;;;4975532;28;20038;-49
2021/10/06 14:00:55;;;;;;;41.65;28.40;;;;;;;;;;4974805;28;20027;-45
2021/10/06 14:03:21;;;;;;;33.47;15.95;;;;;;;;;;4974533;28;20027;-45
2021/10/06 14:05:50;;;;;;;49.28;29.75;;;;;;;;;;4974506;28;20034;-45
2021/10/06 14:08:16;;;;;;;43.13;26.17;;;;;;;;;;4974577;28;20033;-48
2021/10/06 14:10:43;;;;;;;40.50;21.55;;;;;;;;;;4974390;28;20090;-45
2021/10/06 14:13:09;;;;;;;89.63;54.97;;;;;;;;;;4974734;28;20025;-45
2021/10/06 14:15:35;;;;;;;27.30;15.45;;;;;;;;;;4974422;28;20018;-46
2021/10/06 14:18:01;;;;;;;64.57;34.17;;;;;;;;;;4974396;28;20418;-46
2021/10/06 14:20:28;;;;;;;62.17;33.90;;;;;;;;;;4974417;28;20101;-45
2021/10/06 14:22:54;;;;;;;117.60;71.68;;;;;;;;;;4974670;28;20026;-45
2021/10/06 14:25:20;;;;;;;46.78;26.38;;;;;;;;;;4974503;28;20018;-45
2021/10/06 14:27:47;;;;;;;58.67;32.67;;;;;;;;;;4974270;28;20019;-45